TVS4WY LGRP-LKPR
Flight info
| Callsign | TVS4WY |
|---|---|
| Flight time | 2h 40m |
| Altitude | 36000 |
| Route | VANES UM601 ADESO UN133 PEREN UL863 EVIVI L863 OKANA DCT TONDO DCT BEGLA DCT NAVTI DCT BODAL DCT VLM |
| Aircraft | B738/M-SDFGHIJ1LORVWXYZ/LB1 |
Departure
| Time | 2026-04-30 18:55 |
|---|---|
| Airport | Rhodes International Airport "Diagoras" (LGRP) |
Arrival
| Time | 2026-04-30 21:36 |
|---|---|
| Airport | Václav Havel Airport Prague (LKPR) |
| Time | Latitude | Longitude | Altitude | Speed | Heading |
|---|---|---|---|---|---|
| 2026-04-30 18:51 | 36.40623 | 28.09533 | 27 ft | 12 kts | 69° |
| 2026-04-30 18:51 | 36.40653 | 28.09633 | 27 ft | 12 kts | 70° |
| 2026-04-30 18:51 | 36.40681 | 28.09729 | 27 ft | 12 kts | 70° |
| 2026-04-30 18:52 | 36.40710 | 28.09824 | 27 ft | 12 kts | 70° |
| 2026-04-30 18:52 | 36.40736 | 28.09918 | 27 ft | 12 kts | 69° |
| 2026-04-30 18:52 | 36.40768 | 28.10025 | 27 ft | 15 kts | 69° |
| 2026-04-30 18:52 | 36.40808 | 28.10160 | 27 ft | 18 kts | 70° |
| 2026-04-30 18:53 | 36.40850 | 28.10305 | 27 ft | 13 kts | 70° |
| 2026-04-30 18:53 | 36.40882 | 28.10408 | 27 ft | 11 kts | 61° |
| 2026-04-30 18:53 | 36.40952 | 28.10424 | 27 ft | 11 kts | 336° |
| 2026-04-30 18:53 | 36.41000 | 28.10353 | 26 ft | 11 kts | 295° |
| 2026-04-30 18:54 | 36.41015 | 28.10264 | 27 ft | 10 kts | 268° |
| 2026-04-30 18:54 | 36.41007 | 28.10216 | 27 ft | 0 kts | 250° |
| 2026-04-30 18:54 | 36.40980 | 28.10128 | 27 ft | 38 kts | 250° |
| 2026-04-30 18:55 | 36.40804 | 28.09525 | 29 ft | 108 kts | 250° |
| 2026-04-30 18:55 | 36.40079 | 28.07040 | 612 ft | 172 kts | 250° |
| 2026-04-30 18:55 | 36.39805 | 28.05583 | 1308 ft | 178 kts | 268° |
| 2026-04-30 18:56 | 36.39685 | 28.02420 | 2580 ft | 202 kts | 265° |
| 2026-04-30 18:56 | 36.39537 | 28.00591 | 2889 ft | 224 kts | 264° |
| 2026-04-30 18:56 | 36.39367 | 27.98597 | 3373 ft | 234 kts | 263° |
| 2026-04-30 18:57 | 36.39009 | 27.94310 | 4436 ft | 266 kts | 265° |
| 2026-04-30 18:57 | 36.38839 | 27.92009 | 5337 ft | 266 kts | 265° |
| 2026-04-30 18:57 | 36.38668 | 27.89702 | 6123 ft | 273 kts | 265° |
| 2026-04-30 18:58 | 36.38333 | 27.84967 | 7697 ft | 278 kts | 268° |
| 2026-04-30 18:58 | 36.38346 | 27.82575 | 8605 ft | 277 kts | 272° |
| 2026-04-30 18:58 | 36.38406 | 27.80138 | 9275 ft | 285 kts | 271° |
| 2026-04-30 18:59 | 36.38502 | 27.75180 | 10723 ft | 295 kts | 271° |
| 2026-04-30 19:00 | 36.39054 | 27.67171 | 12249 ft | 329 kts | 280° |
| 2026-04-30 19:00 | 36.39494 | 27.64339 | 12771 ft | 339 kts | 280° |
| 2026-04-30 19:00 | 36.40371 | 27.58436 | 13890 ft | 355 kts | 279° |
| 2026-04-30 19:01 | 36.41143 | 27.52329 | 15372 ft | 353 kts | 278° |
| 2026-04-30 19:01 | 36.41498 | 27.49350 | 16095 ft | 356 kts | 278° |
| 2026-04-30 19:02 | 36.42260 | 27.43119 | 17173 ft | 367 kts | 278° |
| 2026-04-30 19:02 | 36.43106 | 27.36785 | 18220 ft | 380 kts | 278° |
| 2026-04-30 19:03 | 36.43846 | 27.30193 | 19215 ft | 387 kts | 276° |
| 2026-04-30 19:03 | 36.44689 | 27.23580 | 20263 ft | 391 kts | 278° |
| 2026-04-30 19:04 | 36.45493 | 27.16930 | 21417 ft | 393 kts | 278° |
| 2026-04-30 19:04 | 36.46302 | 27.10169 | 22398 ft | 398 kts | 278° |
| 2026-04-30 19:05 | 36.47131 | 27.03320 | 23379 ft | 403 kts | 278° |
| 2026-04-30 19:05 | 36.47981 | 26.96370 | 24202 ft | 408 kts | 278° |
| 2026-04-30 19:06 | 36.48825 | 26.89411 | 24998 ft | 411 kts | 278° |
| 2026-04-30 19:06 | 36.49263 | 26.85885 | 25381 ft | 413 kts | 281° |
| 2026-04-30 19:06 | 36.51633 | 26.79373 | 26131 ft | 419 kts | 305° |
| 2026-04-30 19:07 | 36.55721 | 26.74151 | 26866 ft | 424 kts | 315° |
| 2026-04-30 19:07 | 36.57909 | 26.71668 | 27208 ft | 427 kts | 316° |
| 2026-04-30 19:08 | 36.62312 | 26.66646 | 27875 ft | 430 kts | 315° |
| 2026-04-30 19:08 | 36.66693 | 26.61580 | 28541 ft | 433 kts | 315° |
| 2026-04-30 19:08 | 36.68902 | 26.59009 | 28861 ft | 435 kts | 315° |
| 2026-04-30 19:09 | 36.73337 | 26.53833 | 29517 ft | 437 kts | 315° |
| 2026-04-30 19:09 | 36.75556 | 26.51240 | 29986 ft | 435 kts | 315° |
| 2026-04-30 19:09 | 36.77763 | 26.48660 | 30423 ft | 432 kts | 314° |
| 2026-04-30 19:10 | 36.82107 | 26.43575 | 31116 ft | 430 kts | 314° |
| 2026-04-30 19:10 | 36.86467 | 26.38461 | 31793 ft | 428 kts | 314° |
| 2026-04-30 19:11 | 36.88633 | 26.35919 | 32143 ft | 426 kts | 314° |
| 2026-04-30 19:11 | 36.92923 | 26.30876 | 32743 ft | 426 kts | 314° |
| 2026-04-30 19:11 | 36.95078 | 26.28340 | 33072 ft | 425 kts | 314° |
| 2026-04-30 19:12 | 36.97279 | 26.25868 | 33379 ft | 425 kts | 319° |
| 2026-04-30 19:12 | 36.99723 | 26.23752 | 33672 ft | 428 kts | 327° |
| 2026-04-30 19:12 | 37.02401 | 26.22055 | 33956 ft | 430 kts | 330° |
| 2026-04-30 19:13 | 37.07774 | 26.18850 | 34450 ft | 429 kts | 331° |
| 2026-04-30 19:13 | 37.13151 | 26.15625 | 34937 ft | 427 kts | 330° |
| 2026-04-30 19:13 | 37.15820 | 26.14005 | 35177 ft | 426 kts | 330° |
| 2026-04-30 19:14 | 37.18485 | 26.12379 | 35422 ft | 425 kts | 330° |
| 2026-04-30 19:14 | 37.21113 | 26.10771 | 35665 ft | 424 kts | 330° |
| 2026-04-30 19:14 | 37.23760 | 26.09148 | 35911 ft | 422 kts | 329° |
| 2026-04-30 19:15 | 37.29086 | 26.05875 | 36002 ft | 427 kts | 329° |
| 2026-04-30 19:15 | 37.37054 | 26.00976 | 35996 ft | 423 kts | 329° |
| 2026-04-30 19:16 | 37.42307 | 25.97740 | 35998 ft | 421 kts | 329° |
| 2026-04-30 19:17 | 37.50177 | 25.92880 | 36002 ft | 418 kts | 329° |
| 2026-04-30 19:17 | 37.58030 | 25.88019 | 36006 ft | 419 kts | 329° |
| 2026-04-30 19:18 | 37.65893 | 25.83141 | 36006 ft | 422 kts | 329° |
| 2026-04-30 19:19 | 37.71188 | 25.79848 | 36011 ft | 424 kts | 329° |
| 2026-04-30 19:19 | 37.79146 | 25.74888 | 36006 ft | 427 kts | 329° |
| 2026-04-30 19:20 | 37.84486 | 25.71554 | 36000 ft | 428 kts | 329° |
| 2026-04-30 19:21 | 37.92491 | 25.66545 | 36001 ft | 428 kts | 329° |
| 2026-04-30 19:22 | 38.03119 | 25.59878 | 36003 ft | 426 kts | 329° |
| 2026-04-30 19:23 | 38.18985 | 25.49881 | 36006 ft | 422 kts | 329° |
| 2026-04-30 19:24 | 38.26863 | 25.44899 | 36008 ft | 421 kts | 329° |
| 2026-04-30 19:25 | 38.39971 | 25.36582 | 36017 ft | 422 kts | 329° |
| 2026-04-30 19:26 | 38.50482 | 25.29889 | 36018 ft | 423 kts | 329° |
| 2026-04-30 19:27 | 38.58374 | 25.24849 | 36021 ft | 424 kts | 329° |
| 2026-04-30 19:28 | 38.66279 | 25.19788 | 36020 ft | 424 kts | 329° |
| 2026-04-30 19:29 | 38.76841 | 25.13007 | 36025 ft | 425 kts | 329° |
| 2026-04-30 19:30 | 38.86526 | 25.06769 | 36033 ft | 424 kts | 329° |
| 2026-04-30 19:31 | 38.97044 | 24.99972 | 36034 ft | 423 kts | 329° |
| 2026-04-30 19:31 | 39.04905 | 24.94876 | 36037 ft | 422 kts | 329° |
| 2026-04-30 19:32 | 39.10171 | 24.91458 | 36043 ft | 422 kts | 329° |
| 2026-04-30 19:32 | 39.15461 | 24.88147 | 36045 ft | 422 kts | 330° |
| 2026-04-30 19:33 | 39.20744 | 24.84900 | 36047 ft | 421 kts | 329° |
| 2026-04-30 19:33 | 39.26014 | 24.81643 | 36054 ft | 421 kts | 329° |
| 2026-04-30 19:34 | 39.31291 | 24.78363 | 36053 ft | 420 kts | 329° |
| 2026-04-30 19:35 | 39.39163 | 24.73454 | 36058 ft | 420 kts | 329° |
| 2026-04-30 19:35 | 39.44443 | 24.70156 | 36064 ft | 420 kts | 329° |
| 2026-04-30 19:36 | 39.49681 | 24.66879 | 36069 ft | 420 kts | 329° |
| 2026-04-30 19:36 | 39.57583 | 24.61928 | 36078 ft | 420 kts | 329° |
| 2026-04-30 19:37 | 39.62830 | 24.58633 | 36079 ft | 421 kts | 329° |
| 2026-04-30 19:37 | 39.68110 | 24.55311 | 36085 ft | 421 kts | 329° |
| 2026-04-30 19:38 | 39.73367 | 24.51997 | 36090 ft | 422 kts | 328° |
| 2026-04-30 19:38 | 39.78668 | 24.48650 | 36093 ft | 422 kts | 328° |
| 2026-04-30 19:39 | 39.83944 | 24.45314 | 36097 ft | 423 kts | 328° |
| 2026-04-30 19:39 | 39.89222 | 24.41971 | 36099 ft | 423 kts | 328° |
| 2026-04-30 19:40 | 39.94533 | 24.38600 | 36102 ft | 423 kts | 328° |
| 2026-04-30 19:40 | 39.99790 | 24.35259 | 36110 ft | 423 kts | 328° |
| 2026-04-30 19:41 | 40.05081 | 24.31890 | 36109 ft | 422 kts | 328° |
| 2026-04-30 19:41 | 40.10352 | 24.28527 | 36112 ft | 421 kts | 328° |
| 2026-04-30 19:42 | 40.15592 | 24.25179 | 36110 ft | 420 kts | 327° |
| 2026-04-30 19:42 | 40.20841 | 24.21819 | 36125 ft | 419 kts | 327° |
| 2026-04-30 19:43 | 40.26083 | 24.18457 | 36129 ft | 418 kts | 327° |
| 2026-04-30 19:44 | 40.33899 | 24.13435 | 36122 ft | 417 kts | 327° |
| 2026-04-30 19:44 | 40.39107 | 24.10081 | 36115 ft | 416 kts | 327° |
| 2026-04-30 19:45 | 40.44283 | 24.06741 | 36118 ft | 415 kts | 327° |
| 2026-04-30 19:45 | 40.49463 | 24.03393 | 36115 ft | 413 kts | 327° |
| 2026-04-30 19:46 | 40.54621 | 24.00052 | 36125 ft | 412 kts | 327° |
| 2026-04-30 19:46 | 40.59764 | 23.96718 | 36125 ft | 412 kts | 327° |
| 2026-04-30 19:47 | 40.64906 | 23.93464 | 36126 ft | 412 kts | 327° |
| 2026-04-30 19:47 | 40.70094 | 23.90223 | 36129 ft | 412 kts | 327° |
| 2026-04-30 19:48 | 40.75246 | 23.86992 | 36131 ft | 412 kts | 327° |
| 2026-04-30 19:48 | 40.80420 | 23.83733 | 36132 ft | 412 kts | 327° |
| 2026-04-30 19:49 | 40.85610 | 23.80455 | 36136 ft | 413 kts | 327° |
| 2026-04-30 19:49 | 40.93387 | 23.75532 | 36136 ft | 415 kts | 327° |
| 2026-04-30 19:50 | 40.98603 | 23.72223 | 36144 ft | 415 kts | 327° |
| 2026-04-30 19:50 | 41.03825 | 23.68905 | 36142 ft | 417 kts | 327° |
| 2026-04-30 19:51 | 41.09064 | 23.65570 | 36148 ft | 417 kts | 327° |
| 2026-04-30 19:51 | 41.14277 | 23.62246 | 36156 ft | 418 kts | 327° |
| 2026-04-30 19:52 | 41.19537 | 23.58885 | 36149 ft | 419 kts | 327° |
| 2026-04-30 19:52 | 41.24795 | 23.55521 | 36160 ft | 419 kts | 327° |
| 2026-04-30 19:53 | 41.30019 | 23.52165 | 36158 ft | 419 kts | 327° |
| 2026-04-30 19:53 | 41.35281 | 23.48779 | 36151 ft | 419 kts | 327° |
| 2026-04-30 19:54 | 41.40533 | 23.45393 | 36158 ft | 419 kts | 327° |
| 2026-04-30 19:54 | 41.45744 | 23.42010 | 36156 ft | 419 kts | 327° |
| 2026-04-30 19:55 | 41.50990 | 23.38589 | 36167 ft | 418 kts | 327° |
| 2026-04-30 19:55 | 41.56223 | 23.35169 | 36166 ft | 418 kts | 327° |
| 2026-04-30 19:56 | 41.61436 | 23.31758 | 36173 ft | 419 kts | 327° |
| 2026-04-30 19:56 | 41.66679 | 23.28322 | 36177 ft | 419 kts | 327° |
| 2026-04-30 19:57 | 41.71895 | 23.24896 | 36179 ft | 419 kts | 327° |
| 2026-04-30 19:57 | 41.77153 | 23.21438 | 36182 ft | 420 kts | 327° |
| 2026-04-30 19:58 | 41.82378 | 23.17995 | 36195 ft | 420 kts | 327° |
| 2026-04-30 19:58 | 41.87639 | 23.14521 | 36205 ft | 421 kts | 327° |
| 2026-04-30 19:59 | 41.92907 | 23.11037 | 36213 ft | 422 kts | 327° |
| 2026-04-30 20:00 | 42.00791 | 23.05811 | 36225 ft | 422 kts | 327° |
| 2026-04-30 20:00 | 42.06069 | 23.02303 | 36218 ft | 422 kts | 328° |
| 2026-04-30 20:01 | 42.13970 | 22.97041 | 36237 ft | 421 kts | 327° |
| 2026-04-30 20:01 | 42.19191 | 22.93554 | 36248 ft | 421 kts | 328° |
| 2026-04-30 20:02 | 42.27094 | 22.88266 | 36254 ft | 423 kts | 328° |
| 2026-04-30 20:03 | 42.35018 | 22.82949 | 36262 ft | 424 kts | 328° |
| 2026-04-30 20:03 | 42.40288 | 22.79405 | 36252 ft | 425 kts | 328° |
| 2026-04-30 20:04 | 42.45588 | 22.75834 | 36251 ft | 425 kts | 328° |
| 2026-04-30 20:05 | 42.53509 | 22.70484 | 36264 ft | 425 kts | 328° |
| 2026-04-30 20:05 | 42.61465 | 22.65095 | 36267 ft | 426 kts | 328° |
| 2026-04-30 20:06 | 42.66747 | 22.61508 | 36277 ft | 426 kts | 328° |
| 2026-04-30 20:06 | 42.72066 | 22.57889 | 36274 ft | 427 kts | 329° |
| 2026-04-30 20:07 | 42.77369 | 22.54274 | 36278 ft | 428 kts | 329° |
| 2026-04-30 20:08 | 42.85361 | 22.48731 | 36277 ft | 427 kts | 324° |
| 2026-04-30 20:08 | 42.90280 | 22.44334 | 36284 ft | 425 kts | 322° |
| 2026-04-30 20:09 | 42.95159 | 22.39746 | 36289 ft | 425 kts | 322° |
| 2026-04-30 20:09 | 43.02464 | 22.32930 | 36288 ft | 424 kts | 322° |
| 2026-04-30 20:10 | 43.09788 | 22.26151 | 36294 ft | 423 kts | 322° |
| 2026-04-30 20:11 | 43.17082 | 22.19393 | 36290 ft | 423 kts | 322° |
| 2026-04-30 20:11 | 43.21952 | 22.14869 | 36299 ft | 421 kts | 322° |
| 2026-04-30 20:12 | 43.29227 | 22.08093 | 36293 ft | 421 kts | 322° |
| 2026-04-30 20:13 | 43.34054 | 22.03585 | 36295 ft | 422 kts | 322° |
| 2026-04-30 20:13 | 43.38907 | 21.99046 | 36300 ft | 422 kts | 322° |
| 2026-04-30 20:14 | 43.43771 | 21.94486 | 36300 ft | 423 kts | 323° |
| 2026-04-30 20:14 | 43.48635 | 21.89917 | 36298 ft | 424 kts | 323° |
| 2026-04-30 20:15 | 43.53487 | 21.85351 | 36300 ft | 424 kts | 323° |
| 2026-04-30 20:15 | 43.58370 | 21.80746 | 36297 ft | 425 kts | 323° |
| 2026-04-30 20:16 | 43.63259 | 21.76127 | 36308 ft | 425 kts | 323° |
| 2026-04-30 20:16 | 43.68122 | 21.71524 | 36308 ft | 426 kts | 323° |
| 2026-04-30 20:17 | 43.73014 | 21.66883 | 36319 ft | 426 kts | 323° |
| 2026-04-30 20:17 | 43.77911 | 21.62228 | 36307 ft | 426 kts | 323° |
| 2026-04-30 20:18 | 43.82802 | 21.57569 | 36299 ft | 425 kts | 323° |
| 2026-04-30 20:18 | 43.87648 | 21.52945 | 36300 ft | 425 kts | 323° |
| 2026-04-30 20:19 | 43.92518 | 21.48287 | 36303 ft | 424 kts | 323° |
| 2026-04-30 20:19 | 43.97359 | 21.43649 | 36298 ft | 424 kts | 323° |
| 2026-04-30 20:20 | 44.02219 | 21.38982 | 36298 ft | 424 kts | 323° |
| 2026-04-30 20:20 | 44.07055 | 21.34328 | 36300 ft | 423 kts | 323° |
| 2026-04-30 20:21 | 44.11907 | 21.29650 | 36292 ft | 423 kts | 323° |
| 2026-04-30 20:21 | 44.15931 | 21.25763 | 36294 ft | 423 kts | 323° |
| 2026-04-30 20:22 | 44.20781 | 21.21070 | 36295 ft | 423 kts | 323° |
| 2026-04-30 20:22 | 44.25625 | 21.16373 | 36293 ft | 424 kts | 323° |
| 2026-04-30 20:23 | 44.30446 | 21.11689 | 36294 ft | 424 kts | 323° |
| 2026-04-30 20:23 | 44.35296 | 21.06966 | 36293 ft | 425 kts | 323° |
| 2026-04-30 20:24 | 44.40132 | 21.02247 | 36300 ft | 425 kts | 323° |
| 2026-04-30 20:24 | 44.45002 | 20.97486 | 36299 ft | 426 kts | 323° |
| 2026-04-30 20:25 | 44.52281 | 20.90351 | 36300 ft | 428 kts | 323° |
| 2026-04-30 20:26 | 44.59605 | 20.83150 | 36302 ft | 428 kts | 323° |
| 2026-04-30 20:26 | 44.66912 | 20.75943 | 36308 ft | 429 kts | 324° |
| 2026-04-30 20:27 | 44.76653 | 20.66299 | 36312 ft | 428 kts | 324° |
| 2026-04-30 20:28 | 44.86409 | 20.56599 | 36314 ft | 428 kts | 324° |
| 2026-04-30 20:30 | 44.98532 | 20.44490 | 36319 ft | 427 kts | 324° |
| 2026-04-30 20:31 | 45.13046 | 20.29906 | 36319 ft | 427 kts | 324° |
| 2026-04-30 20:32 | 45.25154 | 20.17670 | 36317 ft | 429 kts | 324° |
| 2026-04-30 20:33 | 45.32461 | 20.10253 | 36320 ft | 430 kts | 324° |
| 2026-04-30 20:34 | 45.39748 | 20.02833 | 36325 ft | 430 kts | 324° |
| 2026-04-30 20:35 | 45.47063 | 19.95360 | 36327 ft | 431 kts | 325° |
| 2026-04-30 20:35 | 45.54344 | 19.87898 | 36331 ft | 431 kts | 325° |
| 2026-04-30 20:36 | 45.59224 | 19.82883 | 36333 ft | 431 kts | 325° |
| 2026-04-30 20:37 | 45.66500 | 19.75384 | 36334 ft | 431 kts | 325° |
| 2026-04-30 20:37 | 45.71370 | 19.70352 | 36336 ft | 430 kts | 325° |
| 2026-04-30 20:38 | 45.76191 | 19.65360 | 36340 ft | 430 kts | 325° |
| 2026-04-30 20:38 | 45.81055 | 19.60311 | 36338 ft | 430 kts | 325° |
| 2026-04-30 20:39 | 45.88299 | 19.52771 | 36340 ft | 430 kts | 325° |
| 2026-04-30 20:40 | 45.95544 | 19.45207 | 36342 ft | 430 kts | 325° |
| 2026-04-30 20:40 | 46.00392 | 19.40130 | 36348 ft | 430 kts | 325° |
| 2026-04-30 20:41 | 46.07573 | 19.32340 | 36346 ft | 431 kts | 322° |
| 2026-04-30 20:41 | 46.12139 | 19.26803 | 36347 ft | 432 kts | 321° |
| 2026-04-30 20:42 | 46.16724 | 19.21181 | 36350 ft | 432 kts | 321° |
| 2026-04-30 20:43 | 46.23607 | 19.12803 | 36351 ft | 433 kts | 322° |
| 2026-04-30 20:43 | 46.28223 | 19.07198 | 36355 ft | 433 kts | 322° |
| 2026-04-30 20:44 | 46.35123 | 18.98801 | 36356 ft | 433 kts | 322° |
| 2026-04-30 20:45 | 46.44364 | 18.87510 | 36357 ft | 434 kts | 322° |
| 2026-04-30 20:45 | 46.48950 | 18.81887 | 36362 ft | 434 kts | 322° |
| 2026-04-30 20:46 | 46.58170 | 18.70542 | 36357 ft | 434 kts | 322° |
| 2026-04-30 20:47 | 46.65090 | 18.61993 | 36359 ft | 434 kts | 322° |
| 2026-04-30 20:48 | 46.71980 | 18.53451 | 36359 ft | 434 kts | 322° |
| 2026-04-30 20:48 | 46.76587 | 18.47724 | 36358 ft | 434 kts | 322° |
| 2026-04-30 20:49 | 46.81169 | 18.42013 | 36361 ft | 434 kts | 322° |
| 2026-04-30 20:50 | 46.88037 | 18.33429 | 36358 ft | 434 kts | 322° |
| 2026-04-30 20:50 | 46.92637 | 18.27663 | 36362 ft | 434 kts | 322° |
| 2026-04-30 20:51 | 46.97204 | 18.21924 | 36363 ft | 434 kts | 322° |
| 2026-04-30 20:51 | 47.04061 | 18.13285 | 36359 ft | 434 kts | 323° |
| 2026-04-30 20:52 | 47.08659 | 18.07473 | 36369 ft | 434 kts | 323° |
| 2026-04-30 20:53 | 47.15510 | 17.98789 | 36369 ft | 435 kts | 323° |
| 2026-04-30 20:53 | 47.20093 | 17.92962 | 36373 ft | 435 kts | 323° |
| 2026-04-30 20:54 | 47.26943 | 17.84229 | 36376 ft | 435 kts | 323° |
| 2026-04-30 20:55 | 47.33793 | 17.75463 | 36377 ft | 436 kts | 323° |
| 2026-04-30 20:55 | 47.38377 | 17.69580 | 36373 ft | 436 kts | 323° |
| 2026-04-30 20:56 | 47.45212 | 17.60781 | 36372 ft | 435 kts | 323° |
| 2026-04-30 20:57 | 47.52038 | 17.51961 | 36374 ft | 435 kts | 323° |
| 2026-04-30 20:57 | 47.56596 | 17.46055 | 36377 ft | 434 kts | 323° |
| 2026-04-30 20:58 | 47.63394 | 17.37220 | 36375 ft | 434 kts | 323° |
| 2026-04-30 20:58 | 47.67936 | 17.31299 | 36380 ft | 434 kts | 324° |
| 2026-04-30 20:59 | 47.74724 | 17.22422 | 36381 ft | 434 kts | 324° |
| 2026-04-30 21:00 | 47.83803 | 17.10683 | 36377 ft | 430 kts | 330° |
| 2026-04-30 21:01 | 47.91332 | 17.03510 | 36396 ft | 427 kts | 333° |
| 2026-04-30 21:02 | 47.98858 | 16.96437 | 36389 ft | 428 kts | 333° |
| 2026-04-30 21:02 | 48.03887 | 16.91645 | 36379 ft | 428 kts | 333° |
| 2026-04-30 21:03 | 48.08879 | 16.86863 | 36397 ft | 427 kts | 333° |
| 2026-04-30 21:03 | 48.13890 | 16.82050 | 36403 ft | 427 kts | 333° |
| 2026-04-30 21:04 | 48.18895 | 16.77232 | 36400 ft | 426 kts | 333° |
| 2026-04-30 21:04 | 48.26353 | 16.70035 | 36092 ft | 426 kts | 334° |
| 2026-04-30 21:05 | 48.28840 | 16.67627 | 35858 ft | 422 kts | 334° |
| 2026-04-30 21:05 | 48.31289 | 16.65249 | 35599 ft | 416 kts | 334° |
| 2026-04-30 21:05 | 48.33703 | 16.62904 | 35362 ft | 410 kts | 335° |
| 2026-04-30 21:05 | 48.36068 | 16.60606 | 35117 ft | 407 kts | 335° |
| 2026-04-30 21:06 | 48.38440 | 16.58301 | 34879 ft | 404 kts | 335° |
| 2026-04-30 21:06 | 48.40796 | 16.56010 | 34644 ft | 402 kts | 335° |
| 2026-04-30 21:06 | 48.43139 | 16.53729 | 34400 ft | 400 kts | 336° |
| 2026-04-30 21:06 | 48.45469 | 16.51459 | 34122 ft | 398 kts | 336° |
| 2026-04-30 21:07 | 48.47788 | 16.49195 | 33844 ft | 396 kts | 336° |
| 2026-04-30 21:07 | 48.50092 | 16.46945 | 33568 ft | 394 kts | 336° |
| 2026-04-30 21:07 | 48.52390 | 16.44697 | 33299 ft | 392 kts | 337° |
| 2026-04-30 21:07 | 48.54674 | 16.42461 | 33025 ft | 391 kts | 337° |
| 2026-04-30 21:08 | 48.56953 | 16.40227 | 32757 ft | 390 kts | 337° |
| 2026-04-30 21:08 | 48.59228 | 16.37994 | 32494 ft | 389 kts | 338° |
| 2026-04-30 21:08 | 48.61495 | 16.35768 | 32233 ft | 388 kts | 338° |
| 2026-04-30 21:08 | 48.63753 | 16.33547 | 31974 ft | 387 kts | 338° |
| 2026-04-30 21:09 | 48.66007 | 16.31328 | 31718 ft | 386 kts | 338° |
| 2026-04-30 21:09 | 48.68227 | 16.29138 | 31457 ft | 385 kts | 338° |
| 2026-04-30 21:09 | 48.70476 | 16.26919 | 31205 ft | 384 kts | 339° |
| 2026-04-30 21:09 | 48.72711 | 16.24712 | 30956 ft | 383 kts | 339° |
| 2026-04-30 21:10 | 48.74931 | 16.22514 | 30677 ft | 379 kts | 339° |
| 2026-04-30 21:10 | 48.77146 | 16.20435 | 30293 ft | 368 kts | 345° |
| 2026-04-30 21:10 | 48.79433 | 16.18906 | 29917 ft | 353 kts | 350° |
| 2026-04-30 21:10 | 48.80939 | 16.18003 | 29647 ft | 350 kts | 351° |
| 2026-04-30 21:11 | 48.83199 | 16.16669 | 29272 ft | 345 kts | 351° |
| 2026-04-30 21:11 | 48.85424 | 16.15358 | 28882 ft | 341 kts | 351° |
| 2026-04-30 21:11 | 48.87630 | 16.14052 | 28495 ft | 338 kts | 351° |
| 2026-04-30 21:11 | 48.89808 | 16.12755 | 28136 ft | 334 kts | 350° |
| 2026-04-30 21:12 | 48.91966 | 16.11464 | 27752 ft | 332 kts | 350° |
| 2026-04-30 21:12 | 48.94105 | 16.10180 | 27385 ft | 329 kts | 350° |
| 2026-04-30 21:12 | 48.96200 | 16.08919 | 27042 ft | 325 kts | 350° |
| 2026-04-30 21:12 | 48.98296 | 16.07655 | 26681 ft | 323 kts | 349° |
| 2026-04-30 21:13 | 49.00384 | 16.06394 | 26316 ft | 321 kts | 349° |
| 2026-04-30 21:13 | 49.02453 | 16.05143 | 25951 ft | 318 kts | 349° |
| 2026-04-30 21:13 | 49.04509 | 16.03898 | 25619 ft | 316 kts | 349° |
| 2026-04-30 21:13 | 49.06553 | 16.02660 | 25264 ft | 314 kts | 349° |
| 2026-04-30 21:14 | 49.08558 | 16.01443 | 24920 ft | 313 kts | 348° |
| 2026-04-30 21:14 | 49.10577 | 16.00219 | 24593 ft | 312 kts | 348° |
| 2026-04-30 21:14 | 49.12603 | 15.98989 | 24253 ft | 313 kts | 348° |
| 2026-04-30 21:14 | 49.14630 | 15.97759 | 23895 ft | 317 kts | 348° |
| 2026-04-30 21:15 | 49.16709 | 15.96501 | 23496 ft | 324 kts | 347° |
| 2026-04-30 21:15 | 49.18820 | 15.95217 | 23094 ft | 326 kts | 347° |
| 2026-04-30 21:15 | 49.20918 | 15.93933 | 22741 ft | 322 kts | 347° |
| 2026-04-30 21:15 | 49.22968 | 15.92675 | 22389 ft | 319 kts | 347° |
| 2026-04-30 21:16 | 49.25023 | 15.91414 | 22046 ft | 316 kts | 346° |
| 2026-04-30 21:16 | 49.27064 | 15.90163 | 21678 ft | 314 kts | 346° |
| 2026-04-30 21:16 | 49.29064 | 15.88937 | 21343 ft | 311 kts | 346° |
| 2026-04-30 21:16 | 49.31072 | 15.87707 | 21004 ft | 309 kts | 346° |
| 2026-04-30 21:17 | 49.33068 | 15.86483 | 20654 ft | 307 kts | 346° |
| 2026-04-30 21:17 | 49.35043 | 15.85270 | 20319 ft | 303 kts | 346° |
| 2026-04-30 21:17 | 49.36994 | 15.84071 | 19991 ft | 301 kts | 346° |
| 2026-04-30 21:17 | 49.38932 | 15.82880 | 19663 ft | 299 kts | 345° |
| 2026-04-30 21:18 | 49.40869 | 15.81688 | 19334 ft | 298 kts | 345° |
| 2026-04-30 21:18 | 49.42772 | 15.80517 | 19005 ft | 298 kts | 345° |
| 2026-04-30 21:18 | 49.44691 | 15.79282 | 18663 ft | 300 kts | 338° |
| 2026-04-30 21:18 | 49.46394 | 15.77335 | 18301 ft | 310 kts | 322° |
| 2026-04-30 21:19 | 49.47721 | 15.74678 | 17959 ft | 319 kts | 307° |
| 2026-04-30 21:19 | 49.48781 | 15.71673 | 17628 ft | 318 kts | 304° |
| 2026-04-30 21:19 | 49.49776 | 15.68671 | 17297 ft | 317 kts | 303° |
| 2026-04-30 21:19 | 49.50770 | 15.65637 | 16956 ft | 316 kts | 303° |
| 2026-04-30 21:20 | 49.51752 | 15.62654 | 16643 ft | 314 kts | 303° |
| 2026-04-30 21:20 | 49.52744 | 15.59663 | 16326 ft | 313 kts | 303° |
| 2026-04-30 21:20 | 49.53739 | 15.56682 | 15996 ft | 312 kts | 303° |
| 2026-04-30 21:20 | 49.54730 | 15.53722 | 15688 ft | 310 kts | 303° |
| 2026-04-30 21:21 | 49.55725 | 15.50757 | 15362 ft | 309 kts | 303° |
| 2026-04-30 21:21 | 49.56713 | 15.47814 | 15048 ft | 309 kts | 303° |
| 2026-04-30 21:21 | 49.58673 | 15.41972 | 14419 ft | 308 kts | 303° |
| 2026-04-30 21:22 | 49.59653 | 15.39048 | 14074 ft | 307 kts | 303° |
| 2026-04-30 21:22 | 49.62582 | 15.30287 | 13056 ft | 304 kts | 302° |
| 2026-04-30 21:23 | 49.63535 | 15.27429 | 12773 ft | 302 kts | 302° |
| 2026-04-30 21:23 | 49.64496 | 15.24545 | 12453 ft | 301 kts | 302° |
| 2026-04-30 21:23 | 49.66405 | 15.18808 | 11813 ft | 299 kts | 301° |
| 2026-04-30 21:24 | 49.67355 | 15.15949 | 11499 ft | 298 kts | 301° |
| 2026-04-30 21:24 | 49.68294 | 15.13122 | 11192 ft | 297 kts | 301° |
| 2026-04-30 21:24 | 49.69236 | 15.10278 | 10881 ft | 297 kts | 301° |
| 2026-04-30 21:24 | 49.70171 | 15.07454 | 10697 ft | 291 kts | 301° |
| 2026-04-30 21:25 | 49.72376 | 15.02522 | 10458 ft | 272 kts | 313° |
| 2026-04-30 21:25 | 49.73563 | 15.00263 | 10214 ft | 270 kts | 313° |
| 2026-04-30 21:25 | 49.74702 | 14.97958 | 9925 ft | 270 kts | 307° |
| 2026-04-30 21:26 | 49.77601 | 14.95125 | 9458 ft | 245 kts | 353° |
| 2026-04-30 21:26 | 49.79095 | 14.93927 | 9253 ft | 255 kts | 315° |
| 2026-04-30 21:27 | 49.80946 | 14.89015 | 8831 ft | 273 kts | 306° |
| 2026-04-30 21:27 | 49.81752 | 14.86320 | 8466 ft | 285 kts | 290° |
| 2026-04-30 21:27 | 49.82457 | 14.83436 | 8167 ft | 280 kts | 300° |
| 2026-04-30 21:28 | 49.84481 | 14.78547 | 7570 ft | 262 kts | 309° |
| 2026-04-30 21:28 | 49.85554 | 14.76310 | 7313 ft | 256 kts | 310° |
| 2026-04-30 21:28 | 49.87683 | 14.71962 | 6813 ft | 253 kts | 310° |
| 2026-04-30 21:29 | 49.88742 | 14.69808 | 6597 ft | 247 kts | 310° |
| 2026-04-30 21:29 | 49.91665 | 14.63866 | 6271 ft | 224 kts | 310° |
| 2026-04-30 21:30 | 49.93428 | 14.60282 | 6095 ft | 225 kts | 310° |
| 2026-04-30 21:31 | 49.96359 | 14.54275 | 5055 ft | 232 kts | 309° |
| 2026-04-30 21:31 | 49.98247 | 14.50570 | 4523 ft | 206 kts | 309° |
| 2026-04-30 21:32 | 49.99881 | 14.47193 | 4105 ft | 184 kts | 309° |
| 2026-04-30 21:32 | 50.00632 | 14.45630 | 4012 ft | 178 kts | 309° |
| 2026-04-30 21:32 | 50.01376 | 14.44086 | 3857 ft | 179 kts | 310° |
| 2026-04-30 21:32 | 50.02104 | 14.42571 | 3636 ft | 168 kts | 310° |
| 2026-04-30 21:33 | 50.02778 | 14.41169 | 3394 ft | 163 kts | 310° |
| 2026-04-30 21:33 | 50.04161 | 14.38290 | 2954 ft | 171 kts | 310° |
| 2026-04-30 21:33 | 50.04868 | 14.36816 | 2732 ft | 168 kts | 310° |
| 2026-04-30 21:34 | 50.05567 | 14.35339 | 2438 ft | 171 kts | 311° |
| 2026-04-30 21:34 | 50.06984 | 14.32443 | 2022 ft | 169 kts | 309° |
| 2026-04-30 21:34 | 50.07697 | 14.30979 | 1738 ft | 169 kts | 309° |
| 2026-04-30 21:35 | 50.08396 | 14.29524 | 1467 ft | 166 kts | 307° |
| 2026-04-30 21:35 | 50.09074 | 14.28104 | 1274 ft | 160 kts | 307° |
| 2026-04-30 21:35 | 50.09700 | 14.26818 | 1208 ft | 138 kts | 305° |
| 2026-04-30 21:35 | 50.10181 | 14.25820 | 1186 ft | 78 kts | 308° |
| 2026-04-30 21:36 | 50.10407 | 14.25346 | 1175 ft | 41 kts | 306° |
| 2026-04-30 21:36 | 50.10546 | 14.25193 | 1166 ft | 13 kts | 29° |
| 2026-04-30 21:37 | 50.10634 | 14.25571 | 1171 ft | 12 kts | 64° |
| 2026-04-30 21:37 | 50.10618 | 14.25692 | 1171 ft | 12 kts | 119° |
| 2026-04-30 21:37 | 50.10577 | 14.25800 | 1174 ft | 12 kts | 123° |
| 2026-04-30 21:37 | 50.10533 | 14.25902 | 1174 ft | 11 kts | 120° |
| 2026-04-30 21:38 | 50.10521 | 14.26016 | 1170 ft | 11 kts | 76° |
| 2026-04-30 21:38 | 50.10531 | 14.26133 | 1171 ft | 11 kts | 85° |
| 2026-04-30 21:38 | 50.10529 | 14.26247 | 1169 ft | 10 kts | 111° |
| 2026-04-30 21:38 | 50.10492 | 14.26342 | 1169 ft | 10 kts | 124° |
| 2026-04-30 21:39 | 50.10452 | 14.26432 | 1169 ft | 10 kts | 124° |
| 2026-04-30 21:39 | 50.10421 | 14.26505 | 1171 ft | 7 kts | 124° |
| 2026-04-30 21:39 | 50.10409 | 14.26531 | 1170 ft | 0 kts | 123° |
| 2026-04-30 21:39 | 50.10407 | 14.26538 | 1170 ft | 2 kts | 123° |
| 2026-04-30 21:40 | 50.10410 | 14.26558 | 1171 ft | 2 kts | 41° |
| 2026-04-30 21:40 | 50.10431 | 14.26578 | 1168 ft | 4 kts | 34° |
| 2026-04-30 21:40 | 50.10435 | 14.26583 | 1172 ft | 0 kts | 34° |